16:47
Airports
History
Links
Donate
Help keep this website running!
PayPal
Bitcoin
Information on this page is community maintained and may be outdated or inaccurate and is intended for reference only or PC simulator navigating.
Always use approved charts for navigating.
SBPF
Lauro Kurtz
Lauro Kurtz (SBPF)
Zona Rural - Passo Fundo, Rio Grande do Sul, Brazil (99001)
(U)
Lat/Lng:28° 14' 38.37" S / 52° 19' 39.62" W
-28.243991 / -52.327671
Elevation:2376'ft 724mMSL
ID / ICAO:SBPF
Runways:1
Longest:(08-26) 1,705.9m 5,597ft Asphalt
Distance To
Airport ID:
Airport Radio Frequencies
Tower: 131.25
METARUpdated 05-26-17 16:00 GMT
Altimeter: 30.03
Visibility: 6.2 statute miles
Wind: 8 knots (010°)
Temp: 22°c 72°f
Humidity: 88.4%

METAR: SBPF 261600Z 01008KT 9999 FEW007 SCT010 BKN020 22/20 Q1017

(Powered by phpweather)
Runway 08 / 26
Dimensions:1705.9 x 22.9m 5597' x 75'ft
Surface:Asphalt
Edge Lights:Low intensity
Runway 08 [A]Runway 26 [B]
Heading:068°TH 248°TH
Lat:
Lng:
28° 14' 48.66"S
52° 20' 8.82"W
28° 14' 28.07"S
52° 19' 10.41"W
User Notes and Comments
Google Map
Nearby Airports
4 Fazenda Coxilha 8.8 NM
SSCX N
(C) Aeroclub 11.5 NM
SSAQ W 267°
4 Fazenda Santa Terezinha 26.0 NM
SIYR ENE 59°
(C) Getulio Vargas 27.7 NM
SSGV NNE 18°
(C) Carazinho 30.3 NM
SSKZ W 259°
4 Agropecuaria Monte Alverne 34.8 NM
SSYQ WSW 254°
(C) Sarandi 37.4 NM
SSXD WNW 299°
VFR Chart
Flight Planning at SkyVector.com